createdAt,value
2019-05-01T00:00:15.260Z,12.8
2019-05-01T00:05:02.042Z,12.9
2019-05-01T00:10:01.481Z,12.9
2019-05-01T00:15:02.559Z,13
2019-05-01T00:20:01.850Z,13
2019-05-01T00:25:02.935Z,12.9
2019-05-01T00:30:01.921Z,12.8
2019-05-01T00:35:03.278Z,12.8
2019-05-01T00:40:02.166Z,12.8
2019-05-01T00:45:03.323Z,12.8
2019-05-01T00:50:01.999Z,12.9
2019-05-01T00:55:01.321Z,12.9
2019-05-01T01:00:02.149Z,13
2019-05-01T01:05:01.489Z,13
2019-05-01T01:10:02.767Z,13.1
2019-05-01T01:15:01.766Z,13.1
2019-05-01T01:20:03.099Z,13.1
2019-05-01T01:25:02.035Z,13.1
2019-05-01T01:30:01.341Z,13.1
2019-05-01T01:35:02.307Z,13.1
2019-05-01T01:40:01.781Z,13.1
2019-05-01T01:45:02.769Z,13.1
2019-05-01T01:50:01.665Z,13.1
2019-05-01T01:55:02.603Z,13
2019-05-01T02:00:01.955Z,13
2019-05-01T02:05:03.250Z,13
2019-05-01T02:10:01.975Z,13
2019-05-01T02:15:05.871Z,12.9
2019-05-01T02:20:01.914Z,12.8
2019-05-01T02:25:02.935Z,12.8
2019-05-01T02:30:01.950Z,12.8
2019-05-01T02:35:03.342Z,12.7
2019-05-01T02:40:02.237Z,12.7
2019-05-01T02:45:01.355Z,12.7
2019-05-01T02:50:02.202Z,12.6
2019-05-01T02:55:01.586Z,12.5
2019-05-01T03:00:02.558Z,12.5
2019-05-01T03:05:01.783Z,12.4
2019-05-01T03:10:02.552Z,12.3
2019-05-01T03:15:01.755Z,12.3
2019-05-01T03:20:03.253Z,12.3
2019-05-01T03:25:02.033Z,12.2
2019-05-01T03:30:01.315Z,12.2
2019-05-01T03:35:02.242Z,12.2
2019-05-01T03:40:04.034Z,12.1
2019-05-01T03:45:02.380Z,12.1
2019-05-01T03:50:04.286Z,12
2019-05-01T03:55:02.803Z,12
2019-05-01T04:00:01.642Z,11.9
2019-05-01T04:05:02.715Z,11.9
2019-05-01T04:10:01.692Z,11.9
2019-05-01T04:15:02.772Z,11.8
2019-05-01T04:20:04.366Z,11.6
2019-05-01T04:25:02.960Z,11.6
2019-05-01T04:30:01.925Z,11.6
2019-05-01T04:35:02.907Z,11.5
2019-05-01T04:40:02.171Z,11.5
2019-05-01T04:45:01.436Z,11.4
2019-05-01T04:50:02.273Z,11.3
2019-05-01T04:55:01.322Z,11.2
2019-05-01T05:00:02.164Z,11.2
2019-05-01T05:05:03.212Z,11.2
2019-05-01T05:10:01.842Z,11
2019-05-01T05:15:02.927Z,10.9
2019-05-01T05:20:01.816Z,10.9
2019-05-01T05:25:03.172Z,10.9
2019-05-01T05:30:04.443Z,10.9
2019-05-01T05:35:02.969Z,10.9
2019-05-01T05:40:02.075Z,10.7
2019-05-01T05:45:01.303Z,10.7
2019-05-01T05:50:02.209Z,10.7
2019-05-01T05:55:01.583Z,10.8
2019-05-01T06:00:02.674Z,10.8
2019-05-01T06:05:01.636Z,10.7
2019-05-01T06:10:02.486Z,10.7
2019-05-01T06:15:06.276Z,10.6
2019-05-01T06:20:02.986Z,10.6
2019-05-01T06:25:04.377Z,10.6
2019-05-01T06:30:06.442Z,10.6
2019-05-01T06:35:02.966Z,10.7
2019-05-01T06:40:03.237Z,10.6
2019-05-01T06:45:02.143Z,10.6
2019-05-01T06:50:05.826Z,10.5
2019-05-01T06:55:02.425Z,10.6
2019-05-01T07:00:03.107Z,10.7
2019-05-01T07:05:02.644Z,10.8
2019-05-01T07:10:01.790Z,10.9
2019-05-01T07:15:02.888Z,11.1
2019-05-01T07:20:01.921Z,11.2
2019-05-01T07:25:03.880Z,11.2
2019-05-01T07:30:01.990Z,11.4
2019-05-01T07:35:03.935Z,11.5
2019-05-01T07:40:02.005Z,11.5
2019-05-01T07:45:03.754Z,11.6
2019-05-01T07:50:02.231Z,11.7
2019-05-01T07:55:01.425Z,11.8
2019-05-01T08:00:03.215Z,11.7
2019-05-01T08:05:04.812Z,11.6
2019-05-01T08:10:02.454Z,11.6
2019-05-01T08:15:04.165Z,11.5
2019-05-01T08:20:02.257Z,11.4
2019-05-01T08:25:01.417Z,11.5
2019-05-01T08:30:02.534Z,11.6
2019-05-01T08:35:02.453Z,11.7
2019-05-01T08:40:02.354Z,11.8
2019-05-01T08:45:04.952Z,12
2019-05-01T08:50:02.762Z,12.1
2019-05-01T08:55:04.185Z,12.5
2019-05-01T09:00:01.648Z,12.6
2019-05-01T09:05:02.900Z,12.6
2019-05-01T09:10:01.781Z,12.6
2019-05-01T09:15:07.023Z,12.7
2019-05-01T09:20:01.811Z,13
2019-05-01T09:25:02.521Z,13.3
2019-05-01T09:30:04.236Z,13.4
2019-05-01T09:35:14.550Z,13.3
2019-05-01T09:40:03.991Z,13.1
2019-05-01T09:45:02.906Z,13
2019-05-01T09:50:04.500Z,13.3
2019-05-01T09:55:03.185Z,13.3
2019-05-01T10:00:01.902Z,13.4
2019-05-01T10:05:06.621Z,13.5
2019-05-01T10:10:01.870Z,13.5
2019-05-01T10:15:05.468Z,13.5
2019-05-01T10:20:12.081Z,13.5
2019-05-01T10:25:03.025Z,13.5
2019-05-01T10:30:04.484Z,13.5
2019-05-01T10:35:03.228Z,13.5
2019-05-01T10:40:02.219Z,13.7
2019-05-01T10:45:01.311Z,13.8
2019-05-01T10:50:02.161Z,14
2019-05-01T10:55:01.548Z,14.2
2019-05-01T11:00:02.705Z,14.4
2019-05-01T11:05:01.646Z,14.4
2019-05-01T11:10:02.570Z,14.4
2019-05-01T11:15:01.421Z,14.3
2019-05-01T11:20:02.182Z,14.5
2019-05-01T11:25:01.483Z,14.6
2019-05-01T11:30:02.617Z,14.7
2019-05-01T11:35:01.947Z,14.8
2019-05-01T11:40:08.422Z,15
2019-05-01T11:45:01.850Z,15
2019-05-01T11:50:03.287Z,15
2019-05-01T11:55:02.092Z,15.1
2019-05-01T12:00:08.475Z,15.4
2019-05-01T12:05:01.839Z,15.4
2019-05-01T12:10:05.554Z,15.6
2019-05-01T12:15:01.595Z,15.6
2019-05-01T12:20:12.741Z,15.9
2019-05-01T12:25:01.640Z,15.9
2019-05-01T12:30:03.062Z,15.8
2019-05-01T12:35:02.027Z,15.8
2019-05-01T12:40:01.331Z,16
2019-05-01T12:45:02.344Z,16
2019-05-01T12:50:01.414Z,16
2019-05-01T12:55:02.284Z,16.2
2019-05-01T13:00:08.329Z,16.3
2019-05-01T13:05:02.429Z,16.3
2019-05-01T13:10:01.750Z,16.5
2019-05-01T13:15:02.907Z,16.8
2019-05-01T13:20:01.875Z,17.1
2019-05-01T13:25:02.927Z,17.3
2019-05-01T13:30:02.020Z,18
2019-05-01T13:35:03.347Z,18.3
2019-05-01T13:40:02.225Z,19
2019-05-01T13:45:01.401Z,19.9
2019-05-01T13:50:05.286Z,20.2
2019-05-01T13:55:01.715Z,20.2
2019-05-01T14:00:03.113Z,20.8
2019-05-01T14:05:02.156Z,21
2019-05-01T14:10:05.849Z,20.8
2019-05-01T14:15:09.737Z,21.3
2019-05-01T14:20:01.462Z,21.3
2019-05-01T14:25:02.385Z,20.8
2019-05-01T14:30:01.578Z,20.7
2019-05-01T14:35:02.745Z,20.8
2019-05-01T14:40:01.863Z,20.5
2019-05-01T14:45:02.943Z,20.5
2019-05-01T14:50:02.148Z,20.8
2019-05-01T14:55:01.439Z,20.8
2019-05-01T15:00:03.795Z,20.9
2019-05-01T15:05:03.296Z,20.8
2019-05-01T15:10:02.166Z,20.4
2019-05-01T15:15:03.364Z,20.2
2019-05-01T15:20:02.263Z,20.2
2019-05-01T15:25:01.421Z,20.2
2019-05-01T15:30:05.286Z,20.6
2019-05-01T15:35:01.808Z,20.6
2019-05-01T15:40:02.873Z,20.5
2019-05-01T15:45:01.985Z,20.5
2019-05-01T15:50:01.442Z,20.5
2019-05-01T15:55:02.453Z,20.2
2019-05-01T16:00:01.497Z,20
2019-05-01T16:05:02.828Z,19.4
2019-05-01T16:10:01.719Z,19.3
2019-05-01T16:15:02.983Z,19.3
2019-05-01T16:20:01.882Z,19.3
2019-05-01T16:25:05.827Z,19.1
2019-05-01T16:30:01.741Z,19.1
2019-05-01T16:35:02.892Z,18.8
2019-05-01T16:40:01.852Z,18.7
2019-05-01T16:45:03.005Z,18.6
2019-05-01T16:50:04.453Z,18.3
2019-05-01T16:55:03.012Z,18.3
2019-05-01T17:00:01.812Z,18.3
2019-05-01T17:05:02.807Z,18
2019-05-01T17:10:01.847Z,17.9
2019-05-01T17:15:01.814Z,17.8
2019-05-01T17:20:03.037Z,17.7
2019-05-01T17:25:04.606Z,17.4
2019-05-01T17:30:03.357Z,17.4
2019-05-01T17:35:06.502Z,17.3
2019-05-01T17:40:03.299Z,17.1
2019-05-01T17:45:02.042Z,17
2019-05-01T17:50:03.318Z,16.9
2019-05-01T17:55:01.937Z,16.8
2019-05-01T18:00:03.037Z,16.6
2019-05-01T18:05:02.159Z,16.4
2019-05-01T18:10:01.496Z,16.3
2019-05-01T18:15:02.517Z,16.1
2019-05-01T18:20:01.830Z,16
2019-05-01T18:25:01.286Z,15.8
2019-05-01T18:30:02.268Z,15.8
2019-05-01T18:35:01.702Z,15.7
2019-05-01T18:40:02.497Z,15.6
2019-05-01T18:45:01.705Z,15.5
2019-05-01T18:50:02.795Z,15.5
2019-05-01T18:55:01.686Z,15.3
2019-05-01T19:00:03.127Z,15.3
2019-05-01T19:05:04.046Z,15.2
2019-05-01T19:10:01.495Z,15.1
2019-05-01T19:15:05.303Z,15
2019-05-01T19:20:01.857Z,15
2019-05-01T19:25:03.170Z,14.9
2019-05-01T19:30:04.544Z,14.7
2019-05-01T19:35:03.283Z,14.7
2019-05-01T19:40:02.154Z,14.7
2019-05-01T19:45:01.438Z,14.6
2019-05-01T19:50:07.296Z,14.5
2019-05-01T19:55:06.242Z,14.3
2019-05-01T20:00:02.651Z,14.3
2019-05-01T20:05:01.664Z,14.2
2019-05-01T20:10:02.825Z,14
2019-05-01T20:15:01.779Z,13.9
2019-05-01T20:20:10.776Z,13.7
2019-05-01T20:25:02.080Z,13.7
2019-05-01T20:30:01.383Z,13.6
2019-05-01T20:35:02.333Z,13.5
2019-05-01T20:40:10.664Z,13.4
2019-05-01T20:45:04.529Z,13.2
2019-05-01T20:50:01.494Z,13.1
2019-05-01T20:55:02.670Z,13
2019-05-01T21:00:02.046Z,13
2019-05-01T21:05:03.304Z,12.9
2019-05-01T21:10:02.184Z,12.7
2019-05-01T21:15:03.187Z,12.6
2019-05-01T21:20:03.702Z,12.5
2019-05-01T21:25:04.610Z,12.4
2019-05-01T21:30:03.665Z,12.3
2019-05-01T21:35:04.731Z,12.3
2019-05-01T21:40:02.704Z,12.2
2019-05-01T21:45:04.296Z,12
2019-05-01T21:50:03.186Z,12
2019-05-01T21:55:01.327Z,11.9
2019-05-01T22:00:02.401Z,11.7
2019-05-01T22:05:03.698Z,11.7
2019-05-01T22:10:02.518Z,11.6
2019-05-01T22:15:01.560Z,11.6
2019-05-01T22:20:02.776Z,11.4
2019-05-01T22:25:01.520Z,11.4
2019-05-01T22:30:05.512Z,11.3
2019-05-01T22:35:01.562Z,11.2
2019-05-01T22:40:02.662Z,11.1
2019-05-01T22:45:04.382Z,10.8
2019-05-01T22:50:03.039Z,10.8
2019-05-01T22:55:02.010Z,10.6
2019-05-01T23:00:05.898Z,10.2
2019-05-01T23:05:01.873Z,10.2
2019-05-01T23:10:03.182Z,10
2019-05-01T23:15:02.016Z,10
2019-05-01T23:20:13.367Z,9.8
2019-05-01T23:25:01.941Z,9.9
2019-05-01T23:30:03.361Z,9.8
2019-05-01T23:35:02.107Z,9.8
2019-05-01T23:40:01.342Z,9.7
2019-05-01T23:45:02.268Z,9.6
2019-05-01T23:50:01.678Z,9.5
2019-05-01T23:55:05.341Z,9.3
